Fillmore, Utah
Current Conditions -  °F | °C
As of 2:55 AM on Sunday 23 Nov 2014 (Local Time) from KDTA Reporting Station
Clear Clear  
Wind Chill: 27°   Ceiling: Unl
Heat Index: 33°   Visibility: 10mi
Dew Point: 30°   Wind: 6mph
Humidity: 90%   Direction: 320°NW
Pressure: 30.08"   Gusts: NA
Location:  38.97°N, 112.32°W
Report Text: KDTA 230955Z AUTO 32005KT 10SM CLR 00/M01 A3008 RMK AO1 T00041011
Loading
Personal Weather Stations






























Interactive Weather Map New forecast layout! Learn more

10-Day Weather Forecast

Advertisements
Track Severe Weather on mobile